모두
San Ysidro Ranch Airport (Catarina, TX) TS40 기상
There is no TAF data available at TS40 or any nearby airports.
There is no METAR data available at TS40. Showing METAR data for KCZT (16 mi 서북).
최근 CZT METAR 이력(TS40에 대한 데이터 없음)
| Date | Time (CDT) | Flight Rules | Wind Dir. | Speed | Type | Height AGL (ft) | Visibility | Temp (°C) | Temp (°F) | Dew Point (°C) | Dew Point (°F) | Rel. Humid. | Pressure | Density Altitude | Remarks |
|---|---|---|---|---|---|---|---|---|---|---|---|---|---|---|---|
| 02-9월 | 04:55 | VFR | 120° | 4 kt | 10 miles | 26° | 78° | 21° | 69° | 74% | 29.95 in Hg | 1,888 ft | |||
| 02-9월 | 04:35 | VFR | 130° | 3 kt | 10 miles | 26° | 78° | 21° | 69° | 74% | 29.96 in Hg | 1,878 ft | |||
| 02-9월 | 04:15 | VFR | 140° | 3 kt | 10 miles | 26° | 78° | 21° | 69° | 74% | 29.95 in Hg | 1,888 ft | |||
| 02-9월 | 03:55 | VFR | 160° | 4 kt | 10 miles | 26° | 78° | 21° | 69° | 74% | 29.96 in Hg | 1,878 ft | |||
| 02-9월 | 03:35 | VFR | 120° | 3 kt | 10 miles | 27° | 80° | 21° | 69° | 70% | 29.96 in Hg | 1,998 ft | |||
| gap in available data | |||||||||||||||
| 02-9월 | 01:55 | VFR | 150° | 6 kt | 10 miles | 29° | 84° | 21° | 69° | 62% | 29.96 in Hg | 2,238 ft | |||
| 02-9월 | 01:15 | VFR | 150° | 7 kt | 10 miles | 30° | 86° | 21° | 69° | 59% | 29.95 in Hg | 2,368 ft | |||
| 02-9월 | 00:55 | VFR | 160° | 8 kt | 10 miles | 30° | 86° | 21° | 69° | 59% | 29.95 in Hg | 2,368 ft | |||
| 02-9월 | 00:35 | VFR | 160° | 8 kt | 10 miles | 30° | 86° | 21° | 69° | 59% | 29.94 in Hg | 2,378 ft | |||
| 02-9월 | 00:15 | VFR | 150° | 9 kt | 10 miles | 31° | 87° | 21° | 69° | 55% | 29.94 in Hg | 2,498 ft | Wind gusting to 14 KT | ||
| 01-9월 | 23:55 | VFR | 150° | 8 kt | 10 miles | 31° | 87° | 21° | 69° | 55% | 29.94 in Hg | 2,498 ft | |||
| 01-9월 | 23:35 | VFR | 150° | 8 kt | 10 miles | 31° | 87° | 21° | 69° | 55% | 29.94 in Hg | 2,498 ft | |||
| 01-9월 | 23:15 | VFR | 140° | 7 kt | 10 miles | 31° | 87° | 21° | 69° | 55% | 29.94 in Hg | 2,498 ft | |||
| 01-9월 | 22:55 | VFR | 140° | 8 kt | 10 miles | 32° | 89° | 20° | 68° | 49% | 29.93 in Hg | 2,628 ft | |||
| 01-9월 | 22:35 | VFR | 130° | 8 kt | 10 miles | 31° | 87° | 17° | 62° | 43% | 29.93 in Hg | 2,508 ft | |||
| 01-9월 | 22:15 | VFR | 120° | 9 kt | 10 miles | 30° | 86° | 16° | 60° | 43% | 29.92 in Hg | 2,398 ft | |||
| 01-9월 | 21:55 | VFR | 110° | 3 kt | 10 miles | 30° | 86° | 16° | 60° | 43% | 29.90 in Hg | 2,418 ft | |||
| 01-9월 | 21:35 | VFR | Calm | 10 miles | 31° | 87° | 16° | 60° | 40% | 29.89 in Hg | 2,548 ft | ||||
| 01-9월 | 21:15 | VFR | 100° | 3 kt | 10 miles | 32° | 89° | 16° | 60° | 38% | 29.89 in Hg | 2,668 ft | |||
| 01-9월 | 20:55 | VFR | 90° | 3 kt | 10 miles | 32° | 89° | 16° | 60° | 38% | 29.87 in Hg | 2,688 ft | |||
| 01-9월 | 20:35 | VFR | 110° | 5 kt | 10 miles | 33° | 91° | 16° | 60° | 36% | 29.87 in Hg | 2,808 ft | |||
| 01-9월 | 20:15 | VFR | 100° | 4 kt | 10 miles | 34° | 93° | 16° | 60° | 34% | 29.87 in Hg | 2,928 ft | |||
| 01-9월 | 19:55 | VFR | 100° | 4 kt | 10 miles | 35° | 95° | 16° | 60° | 32% | 29.87 in Hg | 3,048 ft | |||
| 01-9월 | 19:15 | VFR | 100° | 7 kt | 10 miles | 37° | 98° | 15° | 59° | 27% | 29.87 in Hg | 3,288 ft | |||
로그인
| 귀하의 브라우저는 지원되지 않습니다.. 브라우저를 업그레이드하세요 |
